CheckWX is a tool to help pilots better visualize weather data.  It is not intended as a substitute for an official pre-flight weather briefing.

22:07:37 UTC

KJSO METAR
Cherokee County Airport
Jacksonville, Texas, USA
Current

13 mins ago

KJSO 202155Z AUTO 17008KT 10SM CLR 33/21 A2997 RMK AO2 T03370208
Observed
Jul-20 @ 21:55 UTC
Wind
  • 170° at 8 KTS
Visibility
10 SM
Flight Rules
VFR
Cloud Levels
  • Clear skies
Temperature
34°C / 93°F
Dewpoint
21°C / 70°F
Heat Index
37°C / 99°F
Humidity
47%
Altimeter
29.97" Hg
Pressure
1014.92 hPa
Previous

33 mins ago

KJSO 202135Z AUTO 22005KT 10SM SCT047 32/21 A2997 RMK AO2 T03300211
Observed
Jul-20 @ 21:35 UTC
Wind
  • 220° at 5 KTS
Visibility
10 SM
Flight Rules
VFR
Cloud Levels
  • Scattered at 4,700' AGL
Temperature
33°C / 91°F
Dewpoint
21°C / 70°F
Heat Index
36°C / 96°F
Humidity
49%
Altimeter
29.97" Hg
Pressure
1014.92 hPa
Previous

53 mins ago

KJSO 202115Z AUTO 20006KT 10SM SCT047 32/21 A2997 RMK AO2 T03290216
Observed
Jul-20 @ 21:15 UTC
Wind
  • 200° at 6 KTS
Visibility
10 SM
Flight Rules
VFR
Cloud Levels
  • Scattered at 4,700' AGL
Temperature
33°C / 91°F
Dewpoint
22°C / 72°F
Heat Index
37°C / 98°F
Humidity
52%
Altimeter
29.97" Hg
Pressure
1014.92 hPa